sensor_id;sensor_type;location;lat;lon;timestamp;P1;durP1;ratioP1;P2;durP2;ratioP2
18383;SDS011;9318;48.644;9.456;2023-08-12T00:01:16;0.60;;;0.60;;
18383;SDS011;9318;48.644;9.456;2023-08-12T00:03:45;0.70;;;0.70;;
18383;SDS011;9318;48.644;9.456;2023-08-12T00:06:12;0.70;;;0.70;;
18383;SDS011;9318;48.644;9.456;2023-08-12T00:08:38;0.70;;;0.70;;
18383;SDS011;9318;48.644;9.456;2023-08-12T00:11:05;0.70;;;0.70;;
18383;SDS011;9318;48.644;9.456;2023-08-12T00:13:32;0.80;;;0.80;;
18383;SDS011;9318;48.644;9.456;2023-08-12T00:15:59;0.70;;;0.70;;
18383;SDS011;9318;48.644;9.456;2023-08-12T00:18:27;0.60;;;0.60;;
18383;SDS011;9318;48.644;9.456;2023-08-12T00:20:54;0.52;;;0.52;;
18383;SDS011;9318;48.644;9.456;2023-08-12T00:23:22;0.70;;;0.70;;
18383;SDS011;9318;48.644;9.456;2023-08-12T00:25:49;0.52;;;0.52;;
18383;SDS011;9318;48.644;9.456;2023-08-12T00:28:16;0.68;;;0.68;;
18383;SDS011;9318;48.644;9.456;2023-08-12T00:30:42;0.60;;;0.60;;
18383;SDS011;9318;48.644;9.456;2023-08-12T00:33:09;0.60;;;0.60;;
18383;SDS011;9318;48.644;9.456;2023-08-12T00:35:37;0.70;;;0.70;;
18383;SDS011;9318;48.644;9.456;2023-08-12T00:38:04;0.60;;;0.60;;
18383;SDS011;9318;48.644;9.456;2023-08-12T00:40:31;0.60;;;0.60;;
18383;SDS011;9318;48.644;9.456;2023-08-12T00:42:57;0.70;;;0.70;;
18383;SDS011;9318;48.644;9.456;2023-08-12T00:45:24;0.70;;;0.70;;
18383;SDS011;9318;48.644;9.456;2023-08-12T00:47:51;0.80;;;0.80;;
18383;SDS011;9318;48.644;9.456;2023-08-12T00:50:18;0.60;;;0.60;;
18383;SDS011;9318;48.644;9.456;2023-08-12T00:52:47;0.70;;;0.70;;
18383;SDS011;9318;48.644;9.456;2023-08-12T00:55:14;0.70;;;0.70;;
18383;SDS011;9318;48.644;9.456;2023-08-12T00:57:41;0.70;;;0.70;;
18383;SDS011;9318;48.644;9.456;2023-08-12T01:00:08;0.50;;;0.50;;
18383;SDS011;9318;48.644;9.456;2023-08-12T01:02:36;0.80;;;0.80;;
18383;SDS011;9318;48.644;9.456;2023-08-12T01:05:03;0.70;;;0.70;;
18383;SDS011;9318;48.644;9.456;2023-08-12T01:07:30;0.60;;;0.60;;
18383;SDS011;9318;48.644;9.456;2023-08-12T01:09:59;0.60;;;0.60;;
18383;SDS011;9318;48.644;9.456;2023-08-12T01:12:26;0.60;;;0.60;;
18383;SDS011;9318;48.644;9.456;2023-08-12T01:14:58;0.70;;;0.70;;
18383;SDS011;9318;48.644;9.456;2023-08-12T01:17:33;0.70;;;0.70;;
18383;SDS011;9318;48.644;9.456;2023-08-12T01:20:03;0.63;;;0.63;;
18383;SDS011;9318;48.644;9.456;2023-08-12T01:22:34;0.50;;;0.50;;
18383;SDS011;9318;48.644;9.456;2023-08-12T01:25:06;0.80;;;0.80;;
18383;SDS011;9318;48.644;9.456;2023-08-12T01:27:34;0.90;;;0.90;;
18383;SDS011;9318;48.644;9.456;2023-08-12T01:30:02;0.70;;;0.70;;
18383;SDS011;9318;48.644;9.456;2023-08-12T01:32:34;0.60;;;0.60;;
18383;SDS011;9318;48.644;9.456;2023-08-12T01:35:06;0.70;;;0.70;;
18383;SDS011;9318;48.644;9.456;2023-08-12T01:37:35;0.80;;;0.80;;
18383;SDS011;9318;48.644;9.456;2023-08-12T01:40:04;0.70;;;0.70;;
18383;SDS011;9318;48.644;9.456;2023-08-12T01:42:34;0.60;;;0.60;;
18383;SDS011;9318;48.644;9.456;2023-08-12T01:45:02;0.73;;;0.73;;
18383;SDS011;9318;48.644;9.456;2023-08-12T01:47:29;0.70;;;0.70;;
18383;SDS011;9318;48.644;9.456;2023-08-12T01:49:57;0.80;;;0.80;;
18383;SDS011;9318;48.644;9.456;2023-08-12T01:52:24;0.80;;;0.80;;
18383;SDS011;9318;48.644;9.456;2023-08-12T01:54:51;0.70;;;0.70;;
18383;SDS011;9318;48.644;9.456;2023-08-12T01:57:19;0.60;;;0.60;;
18383;SDS011;9318;48.644;9.456;2023-08-12T01:59:46;0.60;;;0.60;;
18383;SDS011;9318;48.644;9.456;2023-08-12T02:02:12;0.70;;;0.70;;
18383;SDS011;9318;48.644;9.456;2023-08-12T02:04:40;0.70;;;0.70;;
18383;SDS011;9318;48.644;9.456;2023-08-12T02:07:08;0.65;;;0.65;;
18383;SDS011;9318;48.644;9.456;2023-08-12T02:09:34;0.80;;;0.80;;
18383;SDS011;9318;48.644;9.456;2023-08-12T02:12:01;0.75;;;0.75;;
18383;SDS011;9318;48.644;9.456;2023-08-12T02:14:29;0.70;;;0.70;;
18383;SDS011;9318;48.644;9.456;2023-08-12T02:16:56;0.80;;;0.80;;
18383;SDS011;9318;48.644;9.456;2023-08-12T02:19:23;0.60;;;0.60;;
18383;SDS011;9318;48.644;9.456;2023-08-12T02:21:49;0.70;;;0.70;;
18383;SDS011;9318;48.644;9.456;2023-08-12T02:24:16;0.55;;;0.55;;
18383;SDS011;9318;48.644;9.456;2023-08-12T02:26:43;0.80;;;0.80;;
18383;SDS011;9318;48.644;9.456;2023-08-12T02:29:10;0.60;;;0.60;;
18383;SDS011;9318;48.644;9.456;2023-08-12T02:31:38;0.80;;;0.80;;
18383;SDS011;9318;48.644;9.456;2023-08-12T02:34:04;0.70;;;0.70;;
18383;SDS011;9318;48.644;9.456;2023-08-12T02:36:31;0.70;;;0.70;;
18383;SDS011;9318;48.644;9.456;2023-08-12T02:38:58;0.70;;;0.70;;
18383;SDS011;9318;48.644;9.456;2023-08-12T02:41:24;0.88;;;0.88;;
18383;SDS011;9318;48.644;9.456;2023-08-12T02:43:51;0.77;;;0.77;;
18383;SDS011;9318;48.644;9.456;2023-08-12T02:46:18;0.80;;;0.80;;
18383;SDS011;9318;48.644;9.456;2023-08-12T02:48:46;0.80;;;0.80;;
18383;SDS011;9318;48.644;9.456;2023-08-12T02:51:13;0.70;;;0.70;;
18383;SDS011;9318;48.644;9.456;2023-08-12T02:53:40;0.70;;;0.70;;
18383;SDS011;9318;48.644;9.456;2023-08-12T02:56:06;0.70;;;0.70;;
18383;SDS011;9318;48.644;9.456;2023-08-12T02:58:33;0.65;;;0.65;;
18383;SDS011;9318;48.644;9.456;2023-08-12T03:01:00;0.60;;;0.60;;
18383;SDS011;9318;48.644;9.456;2023-08-12T03:03:28;0.80;;;0.80;;
18383;SDS011;9318;48.644;9.456;2023-08-12T03:05:57;0.70;;;0.70;;
18383;SDS011;9318;48.644;9.456;2023-08-12T03:08:23;0.70;;;0.70;;
18383;SDS011;9318;48.644;9.456;2023-08-12T03:10:50;0.60;;;0.60;;
18383;SDS011;9318;48.644;9.456;2023-08-12T03:13:24;0.60;;;0.60;;
18383;SDS011;9318;48.644;9.456;2023-08-12T03:15:51;0.70;;;0.70;;
18383;SDS011;9318;48.644;9.456;2023-08-12T03:18:18;0.70;;;0.70;;
18383;SDS011;9318;48.644;9.456;2023-08-12T03:20:44;0.60;;;0.60;;
18383;SDS011;9318;48.644;9.456;2023-08-12T03:23:12;0.60;;;0.60;;
18383;SDS011;9318;48.644;9.456;2023-08-12T03:25:39;0.60;;;0.60;;
18383;SDS011;9318;48.644;9.456;2023-08-12T03:28:06;0.70;;;0.70;;
18383;SDS011;9318;48.644;9.456;2023-08-12T03:30:33;0.68;;;0.68;;
18383;SDS011;9318;48.644;9.456;2023-08-12T03:32:59;0.70;;;0.70;;
18383;SDS011;9318;48.644;9.456;2023-08-12T03:35:26;0.50;;;0.50;;
18383;SDS011;9318;48.644;9.456;2023-08-12T03:37:53;0.60;;;0.60;;
18383;SDS011;9318;48.644;9.456;2023-08-12T03:40:21;0.70;;;0.70;;
18383;SDS011;9318;48.644;9.456;2023-08-12T03:42:48;0.70;;;0.70;;
18383;SDS011;9318;48.644;9.456;2023-08-12T03:45:14;0.70;;;0.70;;
18383;SDS011;9318;48.644;9.456;2023-08-12T03:47:41;0.60;;;0.60;;
18383;SDS011;9318;48.644;9.456;2023-08-12T03:50:08;0.77;;;0.77;;
18383;SDS011;9318;48.644;9.456;2023-08-12T03:52:35;0.60;;;0.60;;
18383;SDS011;9318;48.644;9.456;2023-08-12T03:55:02;0.70;;;0.70;;
18383;SDS011;9318;48.644;9.456;2023-08-12T03:57:30;0.80;;;0.80;;
18383;SDS011;9318;48.644;9.456;2023-08-12T03:59:57;0.70;;;0.70;;
18383;SDS011;9318;48.644;9.456;2023-08-12T04:02:24;0.60;;;0.60;;
18383;SDS011;9318;48.644;9.456;2023-08-12T04:04:51;0.70;;;0.70;;
18383;SDS011;9318;48.644;9.456;2023-08-12T04:07:17;0.70;;;0.70;;
18383;SDS011;9318;48.644;9.456;2023-08-12T04:09:44;0.73;;;0.73;;
18383;SDS011;9318;48.644;9.456;2023-08-12T04:12:11;0.60;;;0.60;;
18383;SDS011;9318;48.644;9.456;2023-08-12T04:14:39;0.50;;;0.50;;
18383;SDS011;9318;48.644;9.456;2023-08-12T04:17:06;0.60;;;0.60;;
18383;SDS011;9318;48.644;9.456;2023-08-12T04:19:32;0.70;;;0.70;;
18383;SDS011;9318;48.644;9.456;2023-08-12T04:21:59;0.60;;;0.60;;
18383;SDS011;9318;48.644;9.456;2023-08-12T04:24:26;0.65;;;0.65;;
18383;SDS011;9318;48.644;9.456;2023-08-12T04:26:52;0.80;;;0.80;;
18383;SDS011;9318;48.644;9.456;2023-08-12T04:29:19;0.57;;;0.57;;
18383;SDS011;9318;48.644;9.456;2023-08-12T04:31:47;0.60;;;0.60;;
18383;SDS011;9318;48.644;9.456;2023-08-12T04:34:14;0.77;;;0.77;;
18383;SDS011;9318;48.644;9.456;2023-08-12T04:36:41;0.60;;;0.60;;
18383;SDS011;9318;48.644;9.456;2023-08-12T04:39:07;0.50;;;0.50;;
18383;SDS011;9318;48.644;9.456;2023-08-12T04:41:35;0.55;;;0.55;;
18383;SDS011;9318;48.644;9.456;2023-08-12T04:44:03;0.70;;;0.70;;
18383;SDS011;9318;48.644;9.456;2023-08-12T04:46:30;0.60;;;0.60;;
18383;SDS011;9318;48.644;9.456;2023-08-12T04:48:58;0.70;;;0.70;;
18383;SDS011;9318;48.644;9.456;2023-08-12T04:51:25;0.60;;;0.60;;
18383;SDS011;9318;48.644;9.456;2023-08-12T04:53:52;0.70;;;0.70;;
18383;SDS011;9318;48.644;9.456;2023-08-12T04:56:19;0.60;;;0.60;;
18383;SDS011;9318;48.644;9.456;2023-08-12T04:58:45;0.60;;;0.60;;
18383;SDS011;9318;48.644;9.456;2023-08-12T05:01:12;0.80;;;0.80;;
18383;SDS011;9318;48.644;9.456;2023-08-12T05:03:39;0.60;;;0.60;;
18383;SDS011;9318;48.644;9.456;2023-08-12T05:06:07;0.70;;;0.70;;
18383;SDS011;9318;48.644;9.456;2023-08-12T05:08:34;0.70;;;0.70;;
18383;SDS011;9318;48.644;9.456;2023-08-12T05:11:00;0.60;;;0.60;;
18383;SDS011;9318;48.644;9.456;2023-08-12T05:13:28;0.70;;;0.70;;
18383;SDS011;9318;48.644;9.456;2023-08-12T05:15:54;0.60;;;0.60;;
18383;SDS011;9318;48.644;9.456;2023-08-12T05:18:21;0.65;;;0.65;;
18383;SDS011;9318;48.644;9.456;2023-08-12T05:20:50;0.60;;;0.60;;
18383;SDS011;9318;48.644;9.456;2023-08-12T05:23:19;0.70;;;0.70;;
18383;SDS011;9318;48.644;9.456;2023-08-12T05:25:46;0.70;;;0.70;;
18383;SDS011;9318;48.644;9.456;2023-08-12T05:28:13;0.60;;;0.60;;
18383;SDS011;9318;48.644;9.456;2023-08-12T05:30:40;0.65;;;0.65;;
18383;SDS011;9318;48.644;9.456;2023-08-12T05:33:06;0.57;;;0.57;;
18383;SDS011;9318;48.644;9.456;2023-08-12T05:35:33;0.70;;;0.70;;
18383;SDS011;9318;48.644;9.456;2023-08-12T05:38:00;0.70;;;0.70;;
18383;SDS011;9318;48.644;9.456;2023-08-12T05:40:28;0.70;;;0.70;;
18383;SDS011;9318;48.644;9.456;2023-08-12T05:42:55;0.57;;;0.57;;
18383;SDS011;9318;48.644;9.456;2023-08-12T05:45:22;0.60;;;0.60;;
18383;SDS011;9318;48.644;9.456;2023-08-12T05:47:49;0.60;;;0.60;;
18383;SDS011;9318;48.644;9.456;2023-08-12T05:50:15;0.68;;;0.68;;
18383;SDS011;9318;48.644;9.456;2023-08-12T05:52:43;0.52;;;0.52;;
18383;SDS011;9318;48.644;9.456;2023-08-12T05:55:09;0.60;;;0.60;;
18383;SDS011;9318;48.644;9.456;2023-08-12T05:57:38;0.63;;;0.63;;
18383;SDS011;9318;48.644;9.456;2023-08-12T06:00:05;0.68;;;0.68;;
18383;SDS011;9318;48.644;9.456;2023-08-12T06:02:32;0.70;;;0.70;;
18383;SDS011;9318;48.644;9.456;2023-08-12T06:04:59;0.60;;;0.60;;
18383;SDS011;9318;48.644;9.456;2023-08-12T06:07:27;0.60;;;0.60;;
18383;SDS011;9318;48.644;9.456;2023-08-12T06:09:54;0.60;;;0.60;;
18383;SDS011;9318;48.644;9.456;2023-08-12T06:12:20;0.68;;;0.68;;
18383;SDS011;9318;48.644;9.456;2023-08-12T06:14:48;0.70;;;0.70;;
18383;SDS011;9318;48.644;9.456;2023-08-12T06:17:15;0.70;;;0.70;;
18383;SDS011;9318;48.644;9.456;2023-08-12T06:19:42;0.70;;;0.70;;
18383;SDS011;9318;48.644;9.456;2023-08-12T06:22:09;0.57;;;0.57;;
18383;SDS011;9318;48.644;9.456;2023-08-12T06:24:36;0.70;;;0.70;;
18383;SDS011;9318;48.644;9.456;2023-08-12T06:27:02;0.60;;;0.60;;
18383;SDS011;9318;48.644;9.456;2023-08-12T06:29:29;0.60;;;0.60;;
18383;SDS011;9318;48.644;9.456;2023-08-12T06:31:57;0.70;;;0.70;;
18383;SDS011;9318;48.644;9.456;2023-08-12T06:34:24;0.70;;;0.70;;
18383;SDS011;9318;48.644;9.456;2023-08-12T06:36:50;0.60;;;0.60;;
18383;SDS011;9318;48.644;9.456;2023-08-12T06:39:17;0.70;;;0.70;;
18383;SDS011;9318;48.644;9.456;2023-08-12T06:41:44;0.70;;;0.70;;
18383;SDS011;9318;48.644;9.456;2023-08-12T06:44:11;0.70;;;0.70;;
18383;SDS011;9318;48.644;9.456;2023-08-12T06:46:37;0.50;;;0.50;;
18383;SDS011;9318;48.644;9.456;2023-08-12T06:49:06;0.70;;;0.70;;
18383;SDS011;9318;48.644;9.456;2023-08-12T06:51:33;0.60;;;0.60;;
18383;SDS011;9318;48.644;9.456;2023-08-12T06:54:00;0.60;;;0.60;;
18383;SDS011;9318;48.644;9.456;2023-08-12T06:56:26;0.50;;;0.50;;
18383;SDS011;9318;48.644;9.456;2023-08-12T06:58:53;0.50;;;0.50;;
18383;SDS011;9318;48.644;9.456;2023-08-12T07:01:20;0.60;;;0.60;;
18383;SDS011;9318;48.644;9.456;2023-08-12T07:03:47;0.70;;;0.70;;
18383;SDS011;9318;48.644;9.456;2023-08-12T07:06:15;0.70;;;0.70;;
18383;SDS011;9318;48.644;9.456;2023-08-12T07:08:41;0.60;;;0.60;;
18383;SDS011;9318;48.644;9.456;2023-08-12T07:11:08;0.70;;;0.70;;
18383;SDS011;9318;48.644;9.456;2023-08-12T07:13:35;0.60;;;0.60;;
18383;SDS011;9318;48.644;9.456;2023-08-12T07:16:01;0.68;;;0.68;;
18383;SDS011;9318;48.644;9.456;2023-08-12T07:18:28;0.57;;;0.57;;
18383;SDS011;9318;48.644;9.456;2023-08-12T07:20:56;0.60;;;0.60;;
18383;SDS011;9318;48.644;9.456;2023-08-12T07:23:24;0.40;;;0.40;;
18383;SDS011;9318;48.644;9.456;2023-08-12T07:25:51;0.40;;;0.40;;
18383;SDS011;9318;48.644;9.456;2023-08-12T07:28:18;0.30;;;0.30;;
18383;SDS011;9318;48.644;9.456;2023-08-12T07:30:44;0.40;;;0.40;;
18383;SDS011;9318;48.644;9.456;2023-08-12T07:33:11;0.30;;;0.30;;
18383;SDS011;9318;48.644;9.456;2023-08-12T07:35:38;0.47;;;0.47;;
18383;SDS011;9318;48.644;9.456;2023-08-12T07:38:06;0.30;;;0.30;;
18383;SDS011;9318;48.644;9.456;2023-08-12T07:40:34;0.30;;;0.30;;
18383;SDS011;9318;48.644;9.456;2023-08-12T07:43:00;0.30;;;0.30;;
18383;SDS011;9318;48.644;9.456;2023-08-12T07:45:27;0.30;;;0.30;;
18383;SDS011;9318;48.644;9.456;2023-08-12T07:47:54;0.30;;;0.30;;
18383;SDS011;9318;48.644;9.456;2023-08-12T07:50:21;0.25;;;0.25;;
18383;SDS011;9318;48.644;9.456;2023-08-12T07:52:48;0.20;;;0.20;;
18383;SDS011;9318;48.644;9.456;2023-08-12T07:55:14;0.30;;;0.30;;
18383;SDS011;9318;48.644;9.456;2023-08-12T07:57:44;0.20;;;0.20;;
18383;SDS011;9318;48.644;9.456;2023-08-12T08:00:11;0.10;;;0.10;;
18383;SDS011;9318;48.644;9.456;2023-08-12T08:02:38;0.10;;;0.10;;
18383;SDS011;9318;48.644;9.456;2023-08-12T08:05:05;0.20;;;0.20;;
18383;SDS011;9318;48.644;9.456;2023-08-12T08:07:33;0.20;;;0.20;;
18383;SDS011;9318;48.644;9.456;2023-08-12T08:09:59;0.10;;;0.10;;
18383;SDS011;9318;48.644;9.456;2023-08-12T08:12:26;0.20;;;0.20;;
18383;SDS011;9318;48.644;9.456;2023-08-12T08:14:54;0.10;;;0.10;;
18383;SDS011;9318;48.644;9.456;2023-08-12T08:17:21;0.20;;;0.20;;
18383;SDS011;9318;48.644;9.456;2023-08-12T08:19:48;0.20;;;0.20;;
18383;SDS011;9318;48.644;9.456;2023-08-12T08:22:14;0.10;;;0.10;;
18383;SDS011;9318;48.644;9.456;2023-08-12T08:24:41;0.20;;;0.20;;
18383;SDS011;9318;48.644;9.456;2023-08-12T08:27:08;0.10;;;0.10;;
18383;SDS011;9318;48.644;9.456;2023-08-12T08:29:35;0.15;;;0.15;;
18383;SDS011;9318;48.644;9.456;2023-08-12T08:32:03;0.10;;;0.10;;
18383;SDS011;9318;48.644;9.456;2023-08-12T08:34:30;0.10;;;0.10;;
18383;SDS011;9318;48.644;9.456;2023-08-12T08:36:56;0.13;;;0.13;;
18383;SDS011;9318;48.644;9.456;2023-08-12T08:39:23;0.10;;;0.10;;
18383;SDS011;9318;48.644;9.456;2023-08-12T08:41:50;0.10;;;0.10;;
18383;SDS011;9318;48.644;9.456;2023-08-12T08:44:20;0.20;;;0.20;;
18383;SDS011;9318;48.644;9.456;2023-08-12T08:46:49;0.15;;;0.15;;
18383;SDS011;9318;48.644;9.456;2023-08-12T08:49:19;0.20;;;0.20;;
18383;SDS011;9318;48.644;9.456;2023-08-12T08:51:46;0.20;;;0.20;;
18383;SDS011;9318;48.644;9.456;2023-08-12T08:54:14;0.20;;;0.20;;
18383;SDS011;9318;48.644;9.456;2023-08-12T08:56:41;0.20;;;0.20;;
18383;SDS011;9318;48.644;9.456;2023-08-12T08:59:08;0.20;;;0.20;;
18383;SDS011;9318;48.644;9.456;2023-08-12T09:01:35;0.20;;;0.20;;
18383;SDS011;9318;48.644;9.456;2023-08-12T09:04:03;0.20;;;0.20;;
18383;SDS011;9318;48.644;9.456;2023-08-12T09:06:33;0.10;;;0.10;;
18383;SDS011;9318;48.644;9.456;2023-08-12T09:09:03;0.10;;;0.10;;
18383;SDS011;9318;48.644;9.456;2023-08-12T09:11:31;0.20;;;0.20;;
18383;SDS011;9318;48.644;9.456;2023-08-12T09:14:00;0.20;;;0.20;;
18383;SDS011;9318;48.644;9.456;2023-08-12T09:16:26;0.20;;;0.20;;
18383;SDS011;9318;48.644;9.456;2023-08-12T09:18:55;0.10;;;0.10;;
18383;SDS011;9318;48.644;9.456;2023-08-12T09:21:22;0.15;;;0.15;;
18383;SDS011;9318;48.644;9.456;2023-08-12T09:23:50;0.20;;;0.20;;
18383;SDS011;9318;48.644;9.456;2023-08-12T09:26:18;0.20;;;0.20;;
18383;SDS011;9318;48.644;9.456;2023-08-12T09:28:46;0.17;;;0.17;;
18383;SDS011;9318;48.644;9.456;2023-08-12T09:31:21;0.10;;;0.10;;
18383;SDS011;9318;48.644;9.456;2023-08-12T09:33:50;0.20;;;0.20;;
18383;SDS011;9318;48.644;9.456;2023-08-12T09:36:17;0.20;;;0.20;;
18383;SDS011;9318;48.644;9.456;2023-08-12T09:38:44;0.20;;;0.20;;
18383;SDS011;9318;48.644;9.456;2023-08-12T09:41:13;0.10;;;0.10;;
18383;SDS011;9318;48.644;9.456;2023-08-12T09:43:40;0.10;;;0.10;;
18383;SDS011;9318;48.644;9.456;2023-08-12T09:46:10;0.20;;;0.20;;
18383;SDS011;9318;48.644;9.456;2023-08-12T09:48:38;0.10;;;0.10;;
18383;SDS011;9318;48.644;9.456;2023-08-12T09:51:05;0.10;;;0.10;;
18383;SDS011;9318;48.644;9.456;2023-08-12T09:53:32;0.15;;;0.15;;
18383;SDS011;9318;48.644;9.456;2023-08-12T09:56:00;0.15;;;0.15;;
18383;SDS011;9318;48.644;9.456;2023-08-12T09:58:34;0.20;;;0.20;;
18383;SDS011;9318;48.644;9.456;2023-08-12T10:01:02;0.20;;;0.20;;
18383;SDS011;9318;48.644;9.456;2023-08-12T10:03:30;0.10;;;0.10;;
18383;SDS011;9318;48.644;9.456;2023-08-12T10:05:59;0.10;;;0.10;;
18383;SDS011;9318;48.644;9.456;2023-08-12T10:08:26;0.10;;;0.10;;
18383;SDS011;9318;48.644;9.456;2023-08-12T10:10:53;0.20;;;0.20;;
18383;SDS011;9318;48.644;9.456;2023-08-12T10:13:20;0.10;;;0.10;;
18383;SDS011;9318;48.644;9.456;2023-08-12T10:15:49;0.10;;;0.10;;
18383;SDS011;9318;48.644;9.456;2023-08-12T10:18:16;0.10;;;0.10;;
18383;SDS011;9318;48.644;9.456;2023-08-12T10:20:44;0.20;;;0.20;;
18383;SDS011;9318;48.644;9.456;2023-08-12T10:23:12;0.20;;;0.20;;
18383;SDS011;9318;48.644;9.456;2023-08-12T10:25:43;0.20;;;0.20;;
18383;SDS011;9318;48.644;9.456;2023-08-12T10:28:10;0.20;;;0.20;;
18383;SDS011;9318;48.644;9.456;2023-08-12T10:30:39;0.20;;;0.20;;
18383;SDS011;9318;48.644;9.456;2023-08-12T10:33:09;0.20;;;0.20;;
18383;SDS011;9318;48.644;9.456;2023-08-12T10:35:43;0.20;;;0.20;;
18383;SDS011;9318;48.644;9.456;2023-08-12T10:38:11;0.30;;;0.30;;
18383;SDS011;9318;48.644;9.456;2023-08-12T10:40:39;0.30;;;0.30;;
18383;SDS011;9318;48.644;9.456;2023-08-12T10:43:06;0.40;;;0.40;;
18383;SDS011;9318;48.644;9.456;2023-08-12T10:45:43;0.30;;;0.30;;
18383;SDS011;9318;48.644;9.456;2023-08-12T10:48:17;0.30;;;0.30;;
18383;SDS011;9318;48.644;9.456;2023-08-12T10:50:46;0.30;;;0.30;;
18383;SDS011;9318;48.644;9.456;2023-08-12T10:53:22;0.20;;;0.20;;
18383;SDS011;9318;48.644;9.456;2023-08-12T10:55:54;0.20;;;0.20;;
18383;SDS011;9318;48.644;9.456;2023-08-12T10:58:26;0.22;;;0.22;;
18383;SDS011;9318;48.644;9.456;2023-08-12T11:00:54;0.30;;;0.30;;
18383;SDS011;9318;48.644;9.456;2023-08-12T11:03:23;0.30;;;0.30;;
18383;SDS011;9318;48.644;9.456;2023-08-12T11:05:50;0.30;;;0.30;;
18383;SDS011;9318;48.644;9.456;2023-08-12T11:08:23;0.30;;;0.30;;
18383;SDS011;9318;48.644;9.456;2023-08-12T11:10:52;0.30;;;0.30;;
18383;SDS011;9318;48.644;9.456;2023-08-12T11:13:21;0.20;;;0.20;;
18383;SDS011;9318;48.644;9.456;2023-08-12T11:15:47;0.30;;;0.30;;
18383;SDS011;9318;48.644;9.456;2023-08-12T11:18:15;0.28;;;0.28;;
18383;SDS011;9318;48.644;9.456;2023-08-12T11:20:45;0.30;;;0.30;;
18383;SDS011;9318;48.644;9.456;2023-08-12T11:23:14;0.30;;;0.30;;
18383;SDS011;9318;48.644;9.456;2023-08-12T11:25:42;0.30;;;0.30;;
18383;SDS011;9318;48.644;9.456;2023-08-12T11:28:10;0.30;;;0.30;;
18383;SDS011;9318;48.644;9.456;2023-08-12T11:30:37;0.20;;;0.20;;
18383;SDS011;9318;48.644;9.456;2023-08-12T11:33:07;0.30;;;0.30;;
18383;SDS011;9318;48.644;9.456;2023-08-12T11:35:34;0.30;;;0.30;;
18383;SDS011;9318;48.644;9.456;2023-08-12T11:38:03;0.30;;;0.30;;
18383;SDS011;9318;48.644;9.456;2023-08-12T11:40:31;0.30;;;0.30;;
18383;SDS011;9318;48.644;9.456;2023-08-12T11:42:58;0.30;;;0.30;;
18383;SDS011;9318;48.644;9.456;2023-08-12T11:45:26;0.30;;;0.30;;
18383;SDS011;9318;48.644;9.456;2023-08-12T11:47:53;0.30;;;0.30;;
18383;SDS011;9318;48.644;9.456;2023-08-12T11:50:21;0.40;;;0.40;;
18383;SDS011;9318;48.644;9.456;2023-08-12T11:52:48;0.20;;;0.20;;
18383;SDS011;9318;48.644;9.456;2023-08-12T11:55:17;0.30;;;0.30;;
18383;SDS011;9318;48.644;9.456;2023-08-12T11:57:44;0.30;;;0.30;;
18383;SDS011;9318;48.644;9.456;2023-08-12T12:00:12;0.20;;;0.20;;
18383;SDS011;9318;48.644;9.456;2023-08-12T12:02:39;0.30;;;0.30;;
18383;SDS011;9318;48.644;9.456;2023-08-12T12:05:08;0.20;;;0.20;;
18383;SDS011;9318;48.644;9.456;2023-08-12T12:07:37;0.35;;;0.35;;
18383;SDS011;9318;48.644;9.456;2023-08-12T12:10:04;0.30;;;0.30;;
18383;SDS011;9318;48.644;9.456;2023-08-12T12:12:34;0.30;;;0.30;;
18383;SDS011;9318;48.644;9.456;2023-08-12T12:15:01;0.30;;;0.30;;
18383;SDS011;9318;48.644;9.456;2023-08-12T12:17:28;0.40;;;0.40;;
18383;SDS011;9318;48.644;9.456;2023-08-12T12:19:56;0.30;;;0.30;;
18383;SDS011;9318;48.644;9.456;2023-08-12T12:22:26;0.30;;;0.30;;
18383;SDS011;9318;48.644;9.456;2023-08-12T12:24:57;0.30;;;0.30;;
18383;SDS011;9318;48.644;9.456;2023-08-12T12:27:25;0.40;;;0.40;;
18383;SDS011;9318;48.644;9.456;2023-08-12T12:29:53;0.30;;;0.30;;
18383;SDS011;9318;48.644;9.456;2023-08-12T12:32:20;0.30;;;0.30;;
18383;SDS011;9318;48.644;9.456;2023-08-12T12:34:47;0.40;;;0.40;;
18383;SDS011;9318;48.644;9.456;2023-08-12T12:37:15;0.35;;;0.35;;
18383;SDS011;9318;48.644;9.456;2023-08-12T12:39:42;0.40;;;0.40;;
18383;SDS011;9318;48.644;9.456;2023-08-12T12:42:09;0.35;;;0.35;;
18383;SDS011;9318;48.644;9.456;2023-08-12T12:44:36;0.40;;;0.40;;
18383;SDS011;9318;48.644;9.456;2023-08-12T12:47:05;0.47;;;0.47;;
18383;SDS011;9318;48.644;9.456;2023-08-12T12:49:32;0.50;;;0.50;;
18383;SDS011;9318;48.644;9.456;2023-08-12T12:51:59;0.50;;;0.50;;
18383;SDS011;9318;48.644;9.456;2023-08-12T12:54:26;0.43;;;0.43;;
18383;SDS011;9318;48.644;9.456;2023-08-12T12:56:54;0.45;;;0.45;;
18383;SDS011;9318;48.644;9.456;2023-08-12T12:59:21;0.50;;;0.50;;
18383;SDS011;9318;48.644;9.456;2023-08-12T13:01:48;0.40;;;0.40;;
18383;SDS011;9318;48.644;9.456;2023-08-12T13:04:16;0.40;;;0.40;;
18383;SDS011;9318;48.644;9.456;2023-08-12T13:06:43;0.50;;;0.50;;
18383;SDS011;9318;48.644;9.456;2023-08-12T13:09:09;0.40;;;0.40;;
18383;SDS011;9318;48.644;9.456;2023-08-12T13:11:36;0.50;;;0.50;;
18383;SDS011;9318;48.644;9.456;2023-08-12T13:14:03;0.43;;;0.43;;
18383;SDS011;9318;48.644;9.456;2023-08-12T13:16:30;0.40;;;0.40;;
18383;SDS011;9318;48.644;9.456;2023-08-12T13:18:57;0.40;;;0.40;;
18383;SDS011;9318;48.644;9.456;2023-08-12T13:21:26;0.45;;;0.45;;
18383;SDS011;9318;48.644;9.456;2023-08-12T13:23:53;0.60;;;0.60;;
18383;SDS011;9318;48.644;9.456;2023-08-12T13:26:21;0.50;;;0.50;;
18383;SDS011;9318;48.644;9.456;2023-08-12T13:28:48;0.50;;;0.50;;
18383;SDS011;9318;48.644;9.456;2023-08-12T13:31:15;0.45;;;0.45;;
18383;SDS011;9318;48.644;9.456;2023-08-12T13:33:41;0.50;;;0.50;;
18383;SDS011;9318;48.644;9.456;2023-08-12T13:36:08;0.50;;;0.50;;
18383;SDS011;9318;48.644;9.456;2023-08-12T13:38:36;0.60;;;0.60;;
18383;SDS011;9318;48.644;9.456;2023-08-12T13:41:03;0.50;;;0.50;;
18383;SDS011;9318;48.644;9.456;2023-08-12T13:43:29;0.52;;;0.52;;
18383;SDS011;9318;48.644;9.456;2023-08-12T13:45:56;0.50;;;0.50;;
18383;SDS011;9318;48.644;9.456;2023-08-12T13:48:23;0.50;;;0.50;;
18383;SDS011;9318;48.644;9.456;2023-08-12T13:50:50;0.60;;;0.60;;
18383;SDS011;9318;48.644;9.456;2023-08-12T13:53:17;0.40;;;0.40;;
18383;SDS011;9318;48.644;9.456;2023-08-12T13:55:45;0.50;;;0.50;;
18383;SDS011;9318;48.644;9.456;2023-08-12T13:58:12;0.40;;;0.40;;
18383;SDS011;9318;48.644;9.456;2023-08-12T14:00:39;0.50;;;0.50;;
18383;SDS011;9318;48.644;9.456;2023-08-12T14:03:05;0.50;;;0.50;;
18383;SDS011;9318;48.644;9.456;2023-08-12T14:05:32;0.50;;;0.50;;
18383;SDS011;9318;48.644;9.456;2023-08-12T14:07:59;0.40;;;0.40;;
18383;SDS011;9318;48.644;9.456;2023-08-12T14:10:26;0.52;;;0.52;;
18383;SDS011;9318;48.644;9.456;2023-08-12T14:12:54;0.40;;;0.40;;
18383;SDS011;9318;48.644;9.456;2023-08-12T14:15:20;0.50;;;0.50;;
18383;SDS011;9318;48.644;9.456;2023-08-12T14:17:47;0.57;;;0.57;;
18383;SDS011;9318;48.644;9.456;2023-08-12T14:20:14;0.32;;;0.32;;
18383;SDS011;9318;48.644;9.456;2023-08-12T14:22:41;0.60;;;0.60;;
18383;SDS011;9318;48.644;9.456;2023-08-12T14:25:09;0.60;;;0.60;;
18383;SDS011;9318;48.644;9.456;2023-08-12T14:27:36;0.45;;;0.45;;
18383;SDS011;9318;48.644;9.456;2023-08-12T14:30:04;0.50;;;0.50;;
18383;SDS011;9318;48.644;9.456;2023-08-12T14:32:32;0.50;;;0.50;;
18383;SDS011;9318;48.644;9.456;2023-08-12T14:34:59;0.40;;;0.40;;
18383;SDS011;9318;48.644;9.456;2023-08-12T14:37:25;0.43;;;0.43;;
18383;SDS011;9318;48.644;9.456;2023-08-12T14:39:53;0.40;;;0.40;;
18383;SDS011;9318;48.644;9.456;2023-08-12T14:42:20;0.40;;;0.40;;
18383;SDS011;9318;48.644;9.456;2023-08-12T14:44:48;0.40;;;0.40;;
18383;SDS011;9318;48.644;9.456;2023-08-12T14:47:16;0.40;;;0.40;;
18383;SDS011;9318;48.644;9.456;2023-08-12T14:49:44;0.40;;;0.40;;
18383;SDS011;9318;48.644;9.456;2023-08-12T14:52:15;0.40;;;0.40;;
18383;SDS011;9318;48.644;9.456;2023-08-12T14:54:43;0.40;;;0.40;;
18383;SDS011;9318;48.644;9.456;2023-08-12T14:57:10;0.40;;;0.40;;
18383;SDS011;9318;48.644;9.456;2023-08-12T14:59:36;0.40;;;0.40;;
18383;SDS011;9318;48.644;9.456;2023-08-12T15:02:03;0.50;;;0.50;;